createdAt,value
2019-02-22T00:00:19.243Z,7.7
2019-02-22T00:02:18.931Z,11.4
2019-02-22T00:04:19.557Z,8.6
2019-02-22T00:06:18.822Z,10.3
2019-02-22T00:08:19.519Z,9.4
2019-02-22T00:10:18.772Z,7.5
2019-02-22T00:12:19.425Z,7.1
2019-02-22T00:14:19.106Z,8.5
2019-02-22T00:16:19.023Z,12.5
2019-02-22T00:18:18.771Z,8.4
2019-02-22T00:20:19.495Z,4.2
2019-02-22T00:22:19.135Z,8.7
2019-02-22T00:24:18.771Z,10.7
2019-02-22T00:26:18.859Z,8.9
2019-02-22T00:28:19.520Z,9.6
2019-02-22T00:30:21.724Z,10
2019-02-22T00:32:19.368Z,8.3
2019-02-22T00:34:19.117Z,7.2
2019-02-22T00:36:19.417Z,8.7
2019-02-22T00:38:19.103Z,7.6
2019-02-22T00:40:19.221Z,8.5
2019-02-22T00:42:18.906Z,6.3
2019-02-22T00:44:19.560Z,7.3
2019-02-22T00:46:19.434Z,6
2019-02-22T00:48:19.117Z,6.7
2019-02-22T00:50:18.807Z,4.7
2019-02-22T00:52:19.443Z,8.6
2019-02-22T00:54:19.120Z,6.4
2019-02-22T00:56:18.668Z,7.2
2019-02-22T00:58:19.307Z,8
2019-02-22T01:00:18.974Z,5.2
2019-02-22T01:02:18.682Z,9.2
2019-02-22T01:04:19.326Z,7.5
2019-02-22T01:06:18.644Z,9.4
2019-02-22T01:08:19.294Z,7
2019-02-22T01:10:31.607Z,9.2
2019-02-22T01:12:19.349Z,7.7
2019-02-22T01:14:19.096Z,6.5
2019-02-22T01:16:19.455Z,8.2
2019-02-22T01:18:19.241Z,9.7
2019-02-22T01:20:19.049Z,7.6
2019-02-22T01:22:18.705Z,7
2019-02-22T01:24:19.357Z,5.2
2019-02-22T01:26:19.322Z,5.2
2019-02-22T01:28:18.985Z,9.3
2019-02-22T01:30:18.659Z,6.7
2019-02-22T01:32:19.125Z,6.9
2019-02-22T01:34:18.815Z,7.5
2019-02-22T01:36:19.392Z,7.9
2019-02-22T01:38:19.046Z,5.1
2019-02-22T01:40:19.180Z,9
2019-02-22T01:42:18.863Z,5
2019-02-22T01:44:19.524Z,7.7
2019-02-22T01:46:19.100Z,5.1
2019-02-22T01:48:18.793Z,5.3
2019-02-22T01:50:19.452Z,6.9
2019-02-22T01:52:19.109Z,5.8
2019-02-22T01:54:18.736Z,7.7
2019-02-22T01:56:18.668Z,4.3
2019-02-22T01:58:19.385Z,7.2
2019-02-22T02:00:19.070Z,6.4
2019-02-22T02:02:18.710Z,9.7
2019-02-22T02:04:19.361Z,11.2
2019-02-22T02:06:19.315Z,5.9
2019-02-22T02:08:18.975Z,6.2
2019-02-22T02:10:19.126Z,5.4
2019-02-22T02:12:18.793Z,5.9
2019-02-22T02:14:19.455Z,4.4
2019-02-22T02:16:18.844Z,6.2
2019-02-22T02:18:19.574Z,6.5
2019-02-22T02:20:19.320Z,5.4
2019-02-22T02:22:18.996Z,4.6
2019-02-22T02:24:18.625Z,7
2019-02-22T02:26:19.540Z,7.5
2019-02-22T02:28:19.200Z,7.4
2019-02-22T02:30:18.867Z,5.8
2019-02-22T02:32:19.403Z,4.3
2019-02-22T02:34:19.104Z,3.8
2019-02-22T02:36:19.547Z,3.2
2019-02-22T02:38:19.215Z,5.2
2019-02-22T02:40:19.469Z,3.6
2019-02-22T02:42:19.167Z,2.9
2019-02-22T02:44:18.827Z,3.9
2019-02-22T02:46:19.244Z,3.4
2019-02-22T02:48:18.913Z,9.3
2019-02-22T02:50:19.578Z,3.4
2019-02-22T02:52:19.231Z,3.8
2019-02-22T02:54:18.889Z,4.1
2019-02-22T02:56:18.807Z,2.8
2019-02-22T02:58:19.469Z,3.9
2019-02-22T03:00:19.172Z,2.2
2019-02-22T03:02:18.840Z,5.6
2019-02-22T03:04:19.513Z,2.3
2019-02-22T03:06:19.337Z,2.1
2019-02-22T03:08:19.021Z,1.9
2019-02-22T03:10:19.212Z,2
2019-02-22T03:12:18.864Z,2.6
2019-02-22T03:14:19.499Z,2.2
2019-02-22T03:16:19.367Z,1.8
2019-02-22T03:18:19.113Z,1.4
2019-02-22T03:20:18.816Z,1.9
2019-02-22T03:22:19.510Z,1.9
2019-02-22T03:24:19.172Z,2.4
2019-02-22T03:26:19.047Z,1.6
2019-02-22T03:28:18.703Z,1.5
2019-02-22T03:30:19.384Z,1.7
2019-02-22T03:32:19.055Z,2
2019-02-22T03:34:18.728Z,1.7
2019-02-22T03:36:19.024Z,2
2019-02-22T03:38:18.732Z,1.8
2019-02-22T03:40:18.867Z,1.6
2019-02-22T03:42:19.493Z,1.7
2019-02-22T03:44:19.124Z,3.9
2019-02-22T03:46:18.628Z,1.2
2019-02-22T03:48:19.321Z,1.7
2019-02-22T03:50:19.002Z,1.2
2019-02-22T03:52:18.672Z,1.8
2019-02-22T03:54:19.317Z,1.7
2019-02-22T03:56:18.732Z,1.8
2019-02-22T03:58:19.395Z,2.2
2019-02-22T04:00:19.045Z,0.9
2019-02-22T04:02:18.739Z,1.3
2019-02-22T04:04:19.414Z,2
2019-02-22T04:06:19.271Z,3.6
2019-02-22T04:08:18.930Z,1.2
2019-02-22T04:10:19.091Z,0.9
2019-02-22T04:12:18.761Z,1.2
2019-02-22T04:14:19.463Z,1.4
2019-02-22T04:16:19.407Z,1.2
2019-02-22T04:18:19.248Z,1.2
2019-02-22T04:20:18.907Z,1.4
2019-02-22T04:22:19.564Z,1
2019-02-22T04:24:19.250Z,1
2019-02-22T04:26:19.460Z,2.6
2019-02-22T04:28:19.111Z,1
2019-02-22T04:30:18.866Z,1.1
2019-02-22T04:32:19.524Z,0.7
2019-02-22T04:34:19.191Z,2.2
2019-02-22T04:36:18.865Z,1.5
2019-02-22T04:38:19.528Z,0.9
2019-02-22T04:40:18.678Z,1.1
2019-02-22T04:42:19.350Z,0.6
2019-02-22T04:44:19.019Z,0.8
2019-02-22T04:46:19.385Z,0.4
2019-02-22T04:48:19.055Z,2.2
2019-02-22T04:50:18.706Z,0.6
2019-02-22T04:52:19.370Z,0.5
2019-02-22T04:54:19.062Z,0.4
2019-02-22T04:56:19.395Z,0.5
2019-02-22T04:58:19.070Z,0.4
2019-02-22T05:00:18.709Z,0.7
2019-02-22T05:02:19.366Z,0.7
2019-02-22T05:04:19.010Z,0.6
2019-02-22T05:06:19.333Z,0.5
2019-02-22T05:08:18.978Z,0.5
2019-02-22T05:10:19.120Z,1.7
2019-02-22T05:12:18.779Z,0.7
2019-02-22T05:14:19.442Z,0.5
2019-02-22T05:16:18.957Z,0.6
2019-02-22T05:18:18.668Z,0.9
2019-02-22T05:20:19.314Z,0.4
2019-02-22T05:22:18.951Z,0.7
2019-02-22T05:24:18.594Z,0.9
2019-02-22T05:26:19.513Z,0.5
2019-02-22T05:28:19.163Z,0.5
2019-02-22T05:30:18.850Z,0.6
2019-02-22T05:32:19.555Z,0.8
2019-02-22T05:34:19.227Z,1.2
2019-02-22T05:36:18.926Z,0.8
2019-02-22T05:38:19.630Z,1.1
2019-02-22T05:40:18.820Z,1.4
2019-02-22T05:42:23.493Z,1.5
2019-02-22T05:44:19.192Z,1.9
2019-02-22T05:46:19.520Z,4.6
2019-02-22T05:48:19.203Z,1
2019-02-22T05:50:18.907Z,1.6
2019-02-22T05:52:18.840Z,1.5
2019-02-22T05:54:19.583Z,2.5
2019-02-22T05:56:19.299Z,1.8
2019-02-22T05:58:18.975Z,1.9
2019-02-22T06:00:18.652Z,1.6
2019-02-22T06:02:19.349Z,4.5
2019-02-22T06:04:18.996Z,4
2019-02-22T06:06:18.881Z,4.7
2019-02-22T06:08:19.581Z,4.5
2019-02-22T06:10:18.752Z,2.2
2019-02-22T06:12:19.387Z,5.5
2019-02-22T06:14:19.053Z,6.2
2019-02-22T06:16:18.616Z,2
2019-02-22T06:18:19.310Z,3.5
2019-02-22T06:20:18.965Z,2.3
2019-02-22T06:22:30.145Z,2.8
2019-02-22T06:24:18.835Z,3.8
2019-02-22T06:26:19.403Z,4.7
2019-02-22T06:28:19.094Z,3
2019-02-22T06:30:18.744Z,4.4
2019-02-22T06:32:19.436Z,4
2019-02-22T06:34:19.075Z,5.4
2019-02-22T06:36:19.088Z,3
2019-02-22T06:38:18.767Z,4.3
2019-02-22T06:40:18.911Z,3.3
2019-02-22T06:42:18.968Z,6.7
2019-02-22T06:44:18.631Z,3.6
2019-02-22T06:46:19.223Z,3.9
2019-02-22T06:48:18.887Z,3.9
2019-02-22T06:50:19.570Z,5.8
2019-02-22T06:52:19.237Z,7
2019-02-22T06:54:18.878Z,5.8
2019-02-22T06:56:18.850Z,5.3
2019-02-22T06:58:19.501Z,4.8
2019-02-22T07:00:19.149Z,4.9
2019-02-22T07:02:18.816Z,4.3
2019-02-22T07:04:19.446Z,3.8
2019-02-22T07:06:18.779Z,3.2
2019-02-22T07:08:19.431Z,3.1
2019-02-22T07:10:19.554Z,3.4
2019-02-22T07:12:19.252Z,3.8
2019-02-22T07:14:18.928Z,5.4
2019-02-22T07:16:18.774Z,3.5
2019-02-22T07:18:19.496Z,2.8
2019-02-22T07:20:19.168Z,2.4
2019-02-22T07:22:18.831Z,4.1
2019-02-22T07:24:19.546Z,1.7
2019-02-22T07:26:18.923Z,3.3
2019-02-22T07:28:19.607Z,2.1
2019-02-22T07:30:19.289Z,1.9
2019-02-22T07:32:18.947Z,0.9
2019-02-22T07:34:18.613Z,1.2
2019-02-22T07:36:19.553Z,0.6
2019-02-22T07:38:19.224Z,1.1
2019-02-22T07:40:20.348Z,1.3
2019-02-22T07:42:19.059Z,0.9
2019-02-22T07:44:18.739Z,1
2019-02-22T07:46:19.102Z,0.8
2019-02-22T07:48:18.760Z,0.9
2019-02-22T07:50:19.392Z,0.8
2019-02-22T07:52:19.042Z,1.1
2019-02-22T07:54:18.705Z,0.7
2019-02-22T07:56:19.497Z,1.1
2019-02-22T07:58:19.160Z,2
2019-02-22T08:00:18.830Z,1.2
2019-02-22T08:02:19.513Z,1.1
2019-02-22T08:04:19.157Z,0.5
2019-02-22T08:06:19.473Z,0.5
2019-02-22T08:08:19.130Z,0.5
2019-02-22T08:10:19.280Z,5
2019-02-22T08:12:18.929Z,0.7
2019-02-22T08:14:19.583Z,0.5
2019-02-22T08:16:18.879Z,1.3
2019-02-22T08:18:18.601Z,1.9
2019-02-22T08:20:19.247Z,0.6
2019-02-22T08:22:21.004Z,0.4
2019-02-22T08:24:18.729Z,1.6
2019-02-22T08:26:19.580Z,0.4
2019-02-22T08:28:19.234Z,1.2
2019-02-22T08:30:18.894Z,1.3
2019-02-22T08:32:19.564Z,0.3
2019-02-22T08:34:19.232Z,0.4
2019-02-22T08:36:19.235Z,0.7
2019-02-22T08:38:18.897Z,0.4
2019-02-22T08:40:19.022Z,0.6
2019-02-22T08:42:18.670Z,0.5
2019-02-22T08:44:19.317Z,1.6
2019-02-22T08:46:19.247Z,0.4
2019-02-22T08:48:18.896Z,0.9
2019-02-22T08:50:19.575Z,0.4
2019-02-22T08:52:19.222Z,0.9
2019-02-22T08:54:18.859Z,3.5
2019-02-22T08:56:19.158Z,1.1
2019-02-22T08:58:18.821Z,1.6
2019-02-22T09:00:19.490Z,0.7
2019-02-22T09:02:19.124Z,0.6
2019-02-22T09:04:18.775Z,0.4
2019-02-22T09:06:18.655Z,1
2019-02-22T09:08:19.280Z,2.1
2019-02-22T09:10:19.395Z,0.9
2019-02-22T09:12:19.021Z,0.3
2019-02-22T09:14:18.673Z,0.7
2019-02-22T09:16:19.161Z,1.3
2019-02-22T09:18:18.879Z,0.4
2019-02-22T09:20:19.559Z,0.3
2019-02-22T09:22:23.426Z,1.8
2019-02-22T09:24:19.071Z,0.6
2019-02-22T09:26:19.400Z,0.2
2019-02-22T09:28:19.013Z,0.7
2019-02-22T09:30:18.730Z,2
2019-02-22T09:32:19.392Z,2.2
2019-02-22T09:34:19.032Z,0.5
2019-02-22T09:36:18.603Z,0.3
2019-02-22T09:38:19.246Z,4.8
2019-02-22T09:40:19.364Z,0.5
2019-02-22T09:42:19.047Z,0.4
2019-02-22T09:44:18.731Z,0.4
2019-02-22T09:46:19.035Z,1.1
2019-02-22T09:48:18.704Z,0.3
2019-02-22T09:50:19.421Z,0.3
2019-02-22T09:52:19.050Z,1.4
2019-02-22T09:54:18.700Z,0.9
2019-02-22T09:56:19.101Z,0.6
2019-02-22T09:58:18.741Z,1.7
2019-02-22T10:00:19.387Z,1.5
2019-02-22T10:02:19.036Z,0.5
2019-02-22T10:04:18.693Z,0.6
2019-02-22T10:06:19.490Z,0.4
2019-02-22T10:08:19.160Z,0.5
2019-02-22T10:10:19.292Z,2.4
2019-02-22T10:12:18.928Z,0.3
2019-02-22T10:14:19.600Z,3.4
2019-02-22T10:16:18.874Z,1.1
2019-02-22T10:18:18.588Z,0.4
2019-02-22T10:20:19.249Z,0.8
2019-02-22T10:22:18.899Z,0.6
2019-02-22T10:24:19.572Z,4.2
2019-02-22T10:26:21.661Z,1.4
2019-02-22T10:28:19.358Z,1.8
2019-02-22T10:30:19.014Z,1.5
2019-02-22T10:32:18.661Z,1
2019-02-22T10:34:19.316Z,1.4
2019-02-22T10:36:19.170Z,2.1
2019-02-22T10:38:18.817Z,3.1
2019-02-22T10:40:18.914Z,0.7
2019-02-22T10:42:19.547Z,1.4
2019-02-22T10:44:19.164Z,0.6
2019-02-22T10:46:19.059Z,1.1
2019-02-22T10:48:18.695Z,0.4
2019-02-22T10:50:19.402Z,0.5
2019-02-22T10:52:19.072Z,6
2019-02-22T10:54:18.724Z,1
2019-02-22T10:56:19.013Z,0.4
2019-02-22T10:58:18.671Z,2.1
2019-02-22T11:00:19.451Z,0.7
2019-02-22T11:02:19.168Z,7.9
2019-02-22T11:04:18.839Z,3.2
2019-02-22T11:06:19.176Z,0.9
2019-02-22T11:08:18.824Z,1
2019-02-22T11:10:18.990Z,1.2
2019-02-22T11:12:18.633Z,2.1
2019-02-22T11:14:29.674Z,1
2019-02-22T11:16:19.347Z,7.2
2019-02-22T11:18:19.067Z,0.3
2019-02-22T11:20:18.732Z,0.6
2019-02-22T11:22:19.382Z,0.5
2019-02-22T11:24:20.223Z,0.5
2019-02-22T11:26:19.574Z,1.6
2019-02-22T11:28:19.224Z,1.6
2019-02-22T11:30:18.905Z,0.6
2019-02-22T11:32:19.528Z,1
2019-02-22T11:34:19.188Z,0.8
2019-02-22T11:36:19.580Z,1.1
2019-02-22T11:38:19.266Z,2
2019-02-22T11:40:19.425Z,0.6
2019-02-22T11:42:19.123Z,1.7
2019-02-22T11:44:18.782Z,1.1
2019-02-22T11:46:18.663Z,3
2019-02-22T11:48:19.306Z,21
2019-02-22T11:50:18.989Z,0.6
2019-02-22T11:52:18.632Z,1
2019-02-22T11:54:19.263Z,1.1
2019-02-22T11:56:19.097Z,1.5
2019-02-22T11:58:18.736Z,1.8
2019-02-22T12:00:19.380Z,0.9
2019-02-22T12:02:19.035Z,7.4
2019-02-22T12:04:18.678Z,2.8
2019-02-22T12:06:19.143Z,0.5
2019-02-22T12:08:18.824Z,2.2
2019-02-22T12:10:19.008Z,2.9
2019-02-22T12:12:18.669Z,1.1
2019-02-22T12:14:19.372Z,0.6
2019-02-22T12:16:18.907Z,1.5
2019-02-22T12:18:18.651Z,0.7
2019-02-22T12:20:19.311Z,5.3
2019-02-22T12:22:18.992Z,0.9
2019-02-22T12:24:18.663Z,0.8
2019-02-22T12:26:19.257Z,1.9
2019-02-22T12:28:18.900Z,1.3
2019-02-22T12:30:19.563Z,1.3
2019-02-22T12:32:19.229Z,0.5
2019-02-22T12:34:18.993Z,3.4
2019-02-22T12:36:18.617Z,1.1
2019-02-22T12:38:19.278Z,1.8
2019-02-22T12:40:19.423Z,1.4
2019-02-22T12:42:19.192Z,0.7
2019-02-22T12:44:18.844Z,2.6
2019-02-22T12:46:18.692Z,0.6
2019-02-22T12:48:19.374Z,2.8
2019-02-22T12:50:19.077Z,0.7
2019-02-22T12:52:18.752Z,2.1
2019-02-22T12:54:19.414Z,0.6
2019-02-22T12:56:44.515Z,0.5
2019-02-22T12:58:19.066Z,1.4
2019-02-22T13:00:18.750Z,1.3
2019-02-22T13:02:18.709Z,4.6
2019-02-22T13:04:19.347Z,1
2019-02-22T13:06:18.709Z,1.3
2019-02-22T13:08:19.399Z,1.5
2019-02-22T13:10:19.537Z,0.6
2019-02-22T13:12:18.992Z,0.4
2019-02-22T13:14:18.742Z,7.9
2019-02-22T13:16:18.637Z,3.9
2019-02-22T13:18:19.349Z,0.5
2019-02-22T13:20:18.982Z,0.7
2019-02-22T13:22:18.651Z,3.3
2019-02-22T13:24:19.304Z,4.1
2019-02-22T13:26:18.830Z,3.9
2019-02-22T13:28:19.485Z,1.8
2019-02-22T13:30:19.184Z,7.5
2019-02-22T13:32:18.863Z,1.1
2019-02-22T13:34:19.575Z,1.7
2019-02-22T13:36:19.476Z,0.4
2019-02-22T13:38:19.147Z,1
2019-02-22T13:40:19.320Z,0.4
2019-02-22T13:42:18.987Z,1.4
2019-02-22T13:44:18.737Z,0.6
2019-02-22T13:46:19.608Z,0.8
2019-02-22T13:48:19.271Z,0.8
2019-02-22T13:50:18.960Z,0.6
2019-02-22T13:52:19.409Z,1.5
2019-02-22T13:54:19.083Z,0.4
2019-02-22T13:56:30.109Z,1.2
2019-02-22T13:58:18.826Z,0.5
2019-02-22T14:00:19.524Z,0.7
2019-02-22T14:02:19.253Z,0.5
2019-02-22T14:04:18.911Z,2.9
2019-02-22T14:06:19.308Z,4.1
2019-02-22T14:08:18.974Z,1.9
2019-02-22T14:10:19.142Z,2.2
2019-02-22T14:12:18.772Z,6.9
2019-02-22T14:14:19.458Z,1.7
2019-02-22T14:16:19.384Z,0.6
2019-02-22T14:18:19.117Z,1.3
2019-02-22T14:20:17.901Z,0.5
2019-02-22T14:22:17.831Z,0.6
2019-02-22T14:24:19.535Z,1.7
2019-02-22T14:26:17.630Z,0.7
2019-02-22T14:28:19.316Z,3.5
2019-02-22T14:30:18.005Z,14.1
2019-02-22T14:32:17.687Z,1.5
2019-02-22T14:34:18.359Z,4.7
2019-02-22T14:36:18.823Z,2.4
2019-02-22T14:38:19.539Z,2.6
2019-02-22T14:40:17.681Z,0.7
2019-02-22T14:42:18.386Z,1.4
2019-02-22T14:44:18.094Z,3.4
2019-02-22T14:46:26.350Z,1.5
2019-02-22T14:48:19.064Z,3.6
2019-02-22T14:50:17.764Z,1.7
2019-02-22T14:52:19.451Z,0.5
2019-02-22T14:54:19.137Z,1
2019-02-22T14:56:18.240Z,1.6
2019-02-22T14:58:18.923Z,2.4
2019-02-22T15:00:19.605Z,1.8
2019-02-22T15:02:19.267Z,1.1
2019-02-22T15:04:18.951Z,2.8
2019-02-22T15:06:18.810Z,0.7
2019-02-22T15:08:19.504Z,0.7
2019-02-22T15:10:19.288Z,0.8
2019-02-22T15:12:18.983Z,1
2019-02-22T15:14:18.659Z,1.7
2019-02-22T15:16:19.021Z,0.5
2019-02-22T15:18:18.754Z,0.6
2019-02-22T15:20:19.443Z,3.3
2019-02-22T15:22:19.081Z,4.6
2019-02-22T15:24:18.738Z,1.4
2019-02-22T15:26:18.629Z,0.7
2019-02-22T15:28:19.291Z,1.8
2019-02-22T15:30:19.212Z,1.7
2019-02-22T15:32:18.899Z,0.9
2019-02-22T15:34:19.563Z,0.7
2019-02-22T15:36:18.649Z,1.5
2019-02-22T15:38:19.352Z,1
2019-02-22T15:40:19.527Z,0.6
2019-02-22T15:42:19.275Z,0.7
2019-02-22T15:44:18.944Z,1.9
2019-02-22T15:46:19.397Z,3.6
2019-02-22T15:48:19.067Z,2.7
2019-02-22T15:50:18.752Z,2
2019-02-22T15:52:19.455Z,0.5
2019-02-22T15:54:19.136Z,2.8
2019-02-22T15:56:19.059Z,0.8
2019-02-22T15:58:18.723Z,1.5
2019-02-22T16:00:19.408Z,4.1
2019-02-22T16:02:19.081Z,3.7
2019-02-22T16:04:18.746Z,4.1
2019-02-22T16:06:19.081Z,1.2
2019-02-22T16:08:18.764Z,0.9
2019-02-22T16:10:18.905Z,1.5
2019-02-22T16:12:19.581Z,0.6
2019-02-22T16:14:19.263Z,0.8
2019-02-22T16:16:23.685Z,10.1
2019-02-22T16:18:19.498Z,0.6
2019-02-22T16:20:19.183Z,3.4
2019-02-22T16:22:18.846Z,1.5
2019-02-22T16:24:19.540Z,2.6
2019-02-22T16:26:19.208Z,0.8
2019-02-22T16:28:18.869Z,0.8
2019-02-22T16:30:19.539Z,3.7
2019-02-22T16:32:19.233Z,1.4
2019-02-22T16:34:18.939Z,2
2019-02-22T16:36:19.266Z,1.4
2019-02-22T16:38:18.953Z,2.9
2019-02-22T16:40:19.123Z,1.7
2019-02-22T16:42:18.767Z,4.7
2019-02-22T16:44:19.457Z,4.1
2019-02-22T16:46:19.173Z,3
2019-02-22T16:48:18.829Z,1.3
2019-02-22T16:50:19.548Z,2.6
2019-02-22T16:52:19.226Z,2.1
2019-02-22T16:54:18.921Z,2.8
2019-02-22T16:56:19.288Z,6.9
2019-02-22T16:58:18.962Z,6.9
2019-02-22T17:00:18.673Z,2.4
2019-02-22T17:02:19.318Z,4.3
2019-02-22T17:04:19.053Z,3.1
2019-02-22T17:06:19.340Z,2.3
2019-02-22T17:08:19.002Z,2.7
2019-02-22T17:10:19.147Z,3.6
2019-02-22T17:12:18.801Z,0.8
2019-02-22T17:14:19.460Z,1.3
2019-02-22T17:16:18.798Z,1.1
2019-02-22T17:18:19.553Z,2.7
2019-02-22T17:20:19.214Z,3.7
2019-02-22T17:22:18.884Z,8.3
2019-02-22T17:24:19.538Z,4.6
2019-02-22T17:26:19.359Z,1.7
2019-02-22T17:28:19.016Z,3.5
2019-02-22T17:30:18.660Z,3.7
2019-02-22T17:32:19.320Z,2.8
2019-02-22T17:34:18.980Z,3.9
2019-02-22T17:36:27.339Z,4.1
2019-02-22T17:38:19.110Z,3.6
2019-02-22T17:40:19.318Z,3.7
2019-02-22T17:42:18.983Z,6
2019-02-22T17:44:18.646Z,2.1
2019-02-22T17:46:19.569Z,4.4
2019-02-22T17:48:19.220Z,8.4
2019-02-22T17:50:18.881Z,5.5
2019-02-22T17:52:19.532Z,6.8
2019-02-22T17:54:19.146Z,3.2
2019-02-22T17:56:19.434Z,3.9
2019-02-22T17:58:24.934Z,4.1
2019-02-22T18:00:18.644Z,2.4
2019-02-22T18:02:19.296Z,5
2019-02-22T18:04:18.924Z,4.1
2019-02-22T18:06:18.901Z,2.5
2019-02-22T18:08:19.524Z,5.2
2019-02-22T18:10:18.656Z,3.1
2019-02-22T18:12:19.287Z,9
2019-02-22T18:14:18.938Z,5.7
2019-02-22T18:16:18.732Z,4.8
2019-02-22T18:18:19.463Z,2.6
2019-02-22T18:20:19.135Z,3.6
2019-02-22T18:22:26.304Z,4
2019-02-22T18:24:19.012Z,2.9
2019-02-22T18:26:19.312Z,4.6
2019-02-22T18:28:18.998Z,3.7
2019-02-22T18:30:18.657Z,3.9
2019-02-22T18:32:19.343Z,3
2019-02-22T18:34:18.976Z,4.6
2019-02-22T18:36:18.887Z,2.3
2019-02-22T18:38:19.547Z,2.8
2019-02-22T18:40:18.683Z,4.6
2019-02-22T18:42:19.364Z,3.2
2019-02-22T18:44:19.010Z,5.5
2019-02-22T18:46:19.282Z,5.8
2019-02-22T18:48:18.920Z,4.5
2019-02-22T18:50:19.580Z,7
2019-02-22T18:52:19.241Z,4.1
2019-02-22T18:54:18.945Z,5
2019-02-22T18:56:19.263Z,3.8
2019-02-22T18:58:18.894Z,4.3
2019-02-22T19:00:19.541Z,5.9
2019-02-22T19:02:19.186Z,5.7
2019-02-22T19:04:18.849Z,3.5
2019-02-22T19:06:19.348Z,10.5
2019-02-22T19:08:19.039Z,6.9
2019-02-22T19:10:19.321Z,10.2
2019-02-22T19:12:19.040Z,10.4
2019-02-22T19:14:18.741Z,16.2
2019-02-22T19:16:19.197Z,8.3
2019-02-22T19:18:18.931Z,14
2019-02-22T19:20:18.641Z,11.7
2019-02-22T19:22:19.279Z,10.7
2019-02-22T19:24:18.906Z,6.6
2019-02-22T19:26:19.173Z,5.6
2019-02-22T19:28:18.795Z,5.5
2019-02-22T19:30:19.442Z,6.9
2019-02-22T19:32:19.098Z,4.7
2019-02-22T19:34:18.735Z,3.2
2019-02-22T19:36:19.553Z,3.8
2019-02-22T19:38:19.167Z,4.6
2019-02-22T19:40:19.371Z,10.4
2019-02-22T19:42:19.047Z,3.7
2019-02-22T19:44:18.706Z,2.8
2019-02-22T19:46:19.559Z,4.2
2019-02-22T19:48:19.192Z,4.1
2019-02-22T19:50:18.834Z,5.3
2019-02-22T19:52:19.462Z,3.9
2019-02-22T19:54:19.146Z,6.8
2019-02-22T19:56:18.951Z,4.3
2019-02-22T19:58:18.593Z,5.9
2019-02-22T20:00:19.229Z,2.9
2019-02-22T20:02:18.872Z,5.3
2019-02-22T20:04:19.492Z,5.6
2019-02-22T20:06:19.039Z,4.5
2019-02-22T20:08:18.659Z,11.4
2019-02-22T20:10:18.956Z,3.8
2019-02-22T20:12:18.579Z,5.1
2019-02-22T20:14:19.236Z,3.5
2019-02-22T20:16:19.547Z,8.5
2019-02-22T20:18:19.245Z,4.9
2019-02-22T20:20:18.919Z,6.2
2019-02-22T20:22:19.583Z,5.9
2019-02-22T20:24:19.304Z,3
2019-02-22T20:26:19.563Z,7.8
2019-02-22T20:28:19.195Z,5.5
2019-02-22T20:30:18.854Z,2.9
2019-02-22T20:32:19.497Z,5.5
2019-02-22T20:34:19.134Z,2.8
2019-02-22T20:36:28.861Z,7.6
2019-02-22T20:38:19.537Z,9
2019-02-22T20:40:18.825Z,9.6
2019-02-22T20:42:19.484Z,8.8
2019-02-22T20:44:19.094Z,5.8
2019-02-22T20:46:19.467Z,6.7
2019-02-22T20:48:19.100Z,7.9
2019-02-22T20:50:18.751Z,3.8
2019-02-22T20:52:19.368Z,4.8
2019-02-22T20:54:19.008Z,8.6
2019-02-22T20:56:19.539Z,5.7
2019-02-22T20:58:19.194Z,6.7
2019-02-22T21:00:18.834Z,4.6
2019-02-22T21:02:19.466Z,4.7
2019-02-22T21:04:19.103Z,7.7
2019-02-22T21:06:19.375Z,9.4
2019-02-22T21:08:18.995Z,8.9
2019-02-22T21:10:19.100Z,6.4
2019-02-22T21:12:18.756Z,6.3
2019-02-22T21:14:19.425Z,7.1
2019-02-22T21:16:19.234Z,6.6
2019-02-22T21:18:18.955Z,7
2019-02-22T21:20:18.587Z,3.4
2019-02-22T21:22:19.261Z,6.3
2019-02-22T21:24:18.905Z,4.7
2019-02-22T21:26:18.772Z,6.7
2019-02-22T21:28:19.408Z,7.9
2019-02-22T21:30:19.106Z,7.6
2019-02-22T21:32:18.772Z,5.7
2019-02-22T21:34:19.395Z,4.2
2019-02-22T21:36:19.239Z,3.9
2019-02-22T21:38:18.889Z,4.8
2019-02-22T21:40:19.019Z,7.2
2019-02-22T21:42:20.701Z,5.5
2019-02-22T21:44:19.332Z,9.9
2019-02-22T21:46:18.662Z,2.2
2019-02-22T21:48:27.957Z,6.5
2019-02-22T21:50:18.648Z,4.4
2019-02-22T21:52:19.288Z,6.9
2019-02-22T21:54:18.927Z,3.9
2019-02-22T21:56:18.751Z,3
2019-02-22T21:58:19.383Z,6.8
2019-02-22T22:00:19.072Z,4.7
2019-02-22T22:02:19.468Z,5.9
2019-02-22T22:04:19.147Z,5.3
2019-02-22T22:06:19.495Z,7.8
2019-02-22T22:08:19.145Z,5.3
2019-02-22T22:10:19.303Z,6.2
2019-02-22T22:12:18.941Z,6.6
2019-02-22T22:14:18.605Z,5.5
2019-02-22T22:16:19.024Z,2.9
2019-02-22T22:18:18.725Z,3.2
2019-02-22T22:20:19.358Z,3.8
2019-02-22T22:22:18.927Z,7.8
2019-02-22T22:24:19.562Z,2.8
2019-02-22T22:26:19.022Z,6
2019-02-22T22:28:18.628Z,4.1
2019-02-22T22:30:19.251Z,3.8
2019-02-22T22:32:18.893Z,4.8
2019-02-22T22:34:19.507Z,2.3
2019-02-22T22:36:18.779Z,5
2019-02-22T22:38:19.407Z,5.4
2019-02-22T22:40:19.516Z,5.7
2019-02-22T22:42:19.160Z,8.1
2019-02-22T22:44:18.799Z,5.3
2019-02-22T22:46:19.065Z,2.8
2019-02-22T22:48:18.714Z,2.5
2019-02-22T22:50:19.363Z,3.1
2019-02-22T22:52:18.878Z,7.1
2019-02-22T22:54:19.527Z,4.6
2019-02-22T22:56:19.353Z,2.5
2019-02-22T22:58:19.035Z,6.1
2019-02-22T23:00:18.713Z,5.3
2019-02-22T23:02:19.374Z,3.1
2019-02-22T23:04:19.011Z,4.3
2019-02-22T23:06:18.903Z,8
2019-02-22T23:08:19.555Z,3.9
2019-02-22T23:10:18.701Z,2.6
2019-02-22T23:12:18.742Z,4.1
2019-02-22T23:14:19.391Z,3.7
2019-02-22T23:16:19.173Z,6.5
2019-02-22T23:18:18.909Z,4.2
2019-02-22T23:20:19.549Z,6
2019-02-22T23:22:19.018Z,10.4
2019-02-22T23:24:18.641Z,3
2019-02-22T23:26:18.975Z,3.1
2019-02-22T23:28:18.665Z,5.9
2019-02-22T23:30:19.330Z,4.1
2019-02-22T23:32:18.987Z,3.4
2019-02-22T23:34:18.598Z,5.7
2019-02-22T23:36:18.939Z,5.3
2019-02-22T23:38:18.583Z,4.1
2019-02-22T23:40:18.667Z,6.4
2019-02-22T23:42:19.320Z,5.7
2019-02-22T23:44:18.939Z,4.3
2019-02-22T23:46:19.368Z,3.7
2019-02-22T23:48:18.983Z,6.5
2019-02-22T23:50:18.853Z,9.1
2019-02-22T23:52:19.516Z,5.8
2019-02-22T23:54:19.166Z,3
2019-02-22T23:56:18.631Z,4.3
2019-02-22T23:58:19.245Z,5.2
